Tropical Cyclones
[Index]
Main Index Home Page Stock Weather Photos Extreme Storms Discussion Storm News and Storm Chasing Reports Tropical Cyclones / Hurricanes / Typhoons Weather Data and Links Wild Fires / Bushfires Weather Observation Techniques Weather Picture Catalogue Tornado Pictures and Reports Stock Video Footage and DVDs for sale
Season 2001-2002 Tropical Cyclone FRANCESCA Track Map
Season 2001-2002 Summaries: [BoM-AU] [JTWC-AU] [JTWC-SIO] [JTWC-SPAC] [JTWC-SH]
<<- Previous TC | JTWC 2001-2002 Season | Next TC ->>

click for intensity scale information  Lat/long Grid: Show Hide

 Date Labels: Show Hide

Joint Typhoon Warning Centre Cyclone Data

Name: FRANCESCA

31 Jan 2002 12:00 UTC to 11 Feb 2002 18:00 UTC

    date/time    lat    long     hPa   cat  kts
2002-01-31 12   12.2    89.7    1004         20          
2002-01-31 18   12.4    88.7    1002         25          
2002-02-01 00   12.7    87.9    1002         25          
2002-02-01 06   13.2    87.2    1002         25          
2002-02-01 12   13.5    86.1    1002         25          
2002-02-01 18   13.8    85.3    1000         30          
2002-02-02 00   14.1    84.5     997         35          
2002-02-02 06   14.2    83.1     997         35          
2002-02-02 12   14.2    81.7     994    1    40          
2002-02-02 18   14.1    80.9     991    1    45          
2002-02-03 00   14.2    80.2     987    1    50          
2002-02-03 06   14.4    79.6     984    2    55          
2002-02-03 12   14.6    79.1     976    2    65          
2002-02-03 18   14.8    78.2     972    2    70          
2002-02-04 00   14.9    77.8     963    3    80          
2002-02-04 06   14.9    77.5     954    3    90          
2002-02-04 12   15.1    77.7     944    4   100          
2002-02-04 18   15.4    78.0     933    4   110          
2002-02-05 00   15.9    78.4     927    4   115          
2002-02-05 06   16.1    78.7     933    4   110          
2002-02-05 12   16.4    79.1     933    4   110          
2002-02-05 18   16.8    79.4     938    4   105          
2002-02-06 00   17.1    79.7     949    3    95          
2002-02-06 06   17.3    80.0     954    3    90          
2002-02-06 12   17.5    80.4     954    3    90          
2002-02-06 18   17.7    80.8     958    3    85          
2002-02-07 00   17.9    81.4     958    3    85          
2002-02-07 06   18.0    82.0     954    3    90          
2002-02-07 12   18.3    82.5     954    3    90          
2002-02-07 18   18.7    83.0     954    3    90          
2002-02-08 00   19.1    83.3     949    3    95          
2002-02-08 06   19.6    83.7     949    3    95          
2002-02-08 12   19.9    84.0     954    3    90          
2002-02-08 18   20.3    84.4     954    3    90          
2002-02-09 00   20.8    84.6     954    3    90          
2002-02-09 06   21.3    84.8     958    3    85          
2002-02-09 12   21.8    84.9     967    3    75          
2002-02-09 18   22.2    84.9     972    2    70          
2002-02-10 00   22.6    84.9     976    2    65          
2002-02-10 06   23.0    85.1     976    2    65          
2002-02-10 12   23.4    85.3     980    2    60          
2002-02-10 18   23.7    85.4     987    1    50          
2002-02-11 00   24.1    85.5     991    1    45          
2002-02-11 06   24.7    85.7     994    1    40          
2002-02-11 12   25.6    86.2    1000         30          
2002-02-11 18   26.4    86.7    1002         25          
Winds are 1-min average.

Tropical cyclone tracks developed by Michael Bath using data from the Joint Typhoon Warning Centre Best Tracks and Google Maps.


[Australian Severe Weather index] [Copyright Notice] [Email Contacts] [Search This Site] [Privacy Policy]
Document: tropical_cyclone_francesca.htm Updated: 28 June 2017